sensor_id;sensor_type;location;lat;lon;timestamp;P1;durP1;ratioP1;P2;durP2;ratioP2
30892;SDS011;17595;50.884;4.346;2022-12-08T00:01:05;27.13;;;19.23;;
30892;SDS011;17595;50.884;4.346;2022-12-08T00:03:32;28.15;;;20.10;;
30892;SDS011;17595;50.884;4.346;2022-12-08T00:05:58;31.52;;;20.60;;
30892;SDS011;17595;50.884;4.346;2022-12-08T00:08:44;30.75;;;19.38;;
30892;SDS011;17595;50.884;4.346;2022-12-08T00:11:28;29.90;;;17.77;;
30892;SDS011;17595;50.884;4.346;2022-12-08T00:13:54;27.33;;;18.98;;
30892;SDS011;17595;50.884;4.346;2022-12-08T00:16:19;27.80;;;17.45;;
30892;SDS011;17595;50.884;4.346;2022-12-08T00:18:45;28.75;;;18.45;;
30892;SDS011;17595;50.884;4.346;2022-12-08T00:21:11;28.27;;;17.92;;
30892;SDS011;17595;50.884;4.346;2022-12-08T00:23:36;27.63;;;18.25;;
30892;SDS011;17595;50.884;4.346;2022-12-08T00:26:02;25.98;;;17.65;;
30892;SDS011;17595;50.884;4.346;2022-12-08T00:28:29;26.27;;;17.67;;
30892;SDS011;17595;50.884;4.346;2022-12-08T00:30:56;31.08;;;18.33;;
30892;SDS011;17595;50.884;4.346;2022-12-08T00:33:22;25.98;;;17.42;;
30892;SDS011;17595;50.884;4.346;2022-12-08T00:35:48;25.70;;;17.70;;
30892;SDS011;17595;50.884;4.346;2022-12-08T00:38:14;25.30;;;16.67;;
30892;SDS011;17595;50.884;4.346;2022-12-08T00:40:46;26.15;;;17.00;;
30892;SDS011;17595;50.884;4.346;2022-12-08T00:43:12;23.73;;;17.13;;
30892;SDS011;17595;50.884;4.346;2022-12-08T00:45:38;27.52;;;17.33;;
30892;SDS011;17595;50.884;4.346;2022-12-08T00:48:04;28.27;;;17.40;;
30892;SDS011;17595;50.884;4.346;2022-12-08T00:50:30;28.17;;;17.67;;
30892;SDS011;17595;50.884;4.346;2022-12-08T00:52:56;26.17;;;17.23;;
30892;SDS011;17595;50.884;4.346;2022-12-08T00:55:22;28.20;;;17.77;;
30892;SDS011;17595;50.884;4.346;2022-12-08T00:57:47;31.33;;;17.85;;
30892;SDS011;17595;50.884;4.346;2022-12-08T01:00:13;27.13;;;17.70;;
30892;SDS011;17595;50.884;4.346;2022-12-08T01:02:39;28.13;;;17.88;;
30892;SDS011;17595;50.884;4.346;2022-12-08T01:05:05;27.80;;;18.08;;
30892;SDS011;17595;50.884;4.346;2022-12-08T01:07:31;30.83;;;19.17;;
30892;SDS011;17595;50.884;4.346;2022-12-08T01:09:57;28.05;;;18.30;;
30892;SDS011;17595;50.884;4.346;2022-12-08T01:12:22;27.17;;;18.17;;
30892;SDS011;17595;50.884;4.346;2022-12-08T01:14:48;29.88;;;19.10;;
30892;SDS011;17595;50.884;4.346;2022-12-08T01:17:14;27.02;;;18.45;;
30892;SDS011;17595;50.884;4.346;2022-12-08T01:19:39;31.42;;;18.88;;
30892;SDS011;17595;50.884;4.346;2022-12-08T01:22:05;30.83;;;19.27;;
30892;SDS011;17595;50.884;4.346;2022-12-08T01:24:31;27.77;;;18.65;;
30892;SDS011;17595;50.884;4.346;2022-12-08T01:26:56;26.88;;;18.00;;
30892;SDS011;17595;50.884;4.346;2022-12-08T01:29:22;28.60;;;18.92;;
30892;SDS011;17595;50.884;4.346;2022-12-08T01:31:48;26.20;;;18.30;;
30892;SDS011;17595;50.884;4.346;2022-12-08T01:34:13;30.85;;;18.92;;
30892;SDS011;17595;50.884;4.346;2022-12-08T01:36:39;33.67;;;19.20;;
30892;SDS011;17595;50.884;4.346;2022-12-08T01:39:07;26.63;;;17.95;;
30892;SDS011;17595;50.884;4.346;2022-12-08T01:41:37;31.55;;;19.10;;
30892;SDS011;17595;50.884;4.346;2022-12-08T01:46:44;27.27;;;18.70;;
30892;SDS011;17595;50.884;4.346;2022-12-08T01:49:14;30.65;;;18.15;;
30892;SDS011;17595;50.884;4.346;2022-12-08T01:51:50;28.08;;;18.90;;
30892;SDS011;17595;50.884;4.346;2022-12-08T01:54:17;25.48;;;17.80;;
30892;SDS011;17595;50.884;4.346;2022-12-08T01:56:50;27.20;;;18.83;;
30892;SDS011;17595;50.884;4.346;2022-12-08T01:59:22;26.90;;;18.00;;
30892;SDS011;17595;50.884;4.346;2022-12-08T02:01:49;28.42;;;19.48;;
30892;SDS011;17595;50.884;4.346;2022-12-08T02:04:15;28.27;;;19.98;;
30892;SDS011;17595;50.884;4.346;2022-12-08T02:06:42;32.78;;;19.77;;
30892;SDS011;17595;50.884;4.346;2022-12-08T02:09:09;29.63;;;20.70;;
30892;SDS011;17595;50.884;4.346;2022-12-08T02:11:35;35.92;;;21.40;;
30892;SDS011;17595;50.884;4.346;2022-12-08T02:14:02;34.20;;;21.15;;
30892;SDS011;17595;50.884;4.346;2022-12-08T02:24:36;38.72;;;21.95;;
30892;SDS011;17595;50.884;4.346;2022-12-08T02:29:49;39.78;;;21.35;;
30892;SDS011;17595;50.884;4.346;2022-12-08T02:41:22;37.15;;;21.65;;
30892;SDS011;17595;50.884;4.346;2022-12-08T02:43:47;34.38;;;21.60;;
30892;SDS011;17595;50.884;4.346;2022-12-08T02:46:31;31.60;;;21.73;;
30892;SDS011;17595;50.884;4.346;2022-12-08T02:49:02;38.92;;;21.58;;
30892;SDS011;17595;50.884;4.346;2022-12-08T02:51:29;42.88;;;22.92;;
30892;SDS011;17595;50.884;4.346;2022-12-08T02:53:54;39.95;;;21.45;;
30892;SDS011;17595;50.884;4.346;2022-12-08T03:01:41;36.10;;;21.67;;
30892;SDS011;17595;50.884;4.346;2022-12-08T03:09:59;34.38;;;20.90;;
30892;SDS011;17595;50.884;4.346;2022-12-08T03:12:49;34.85;;;20.17;;
30892;SDS011;17595;50.884;4.346;2022-12-08T03:15:28;38.38;;;22.92;;
30892;SDS011;17595;50.884;4.346;2022-12-08T03:17:55;38.15;;;22.95;;
30892;SDS011;17595;50.884;4.346;2022-12-08T03:20:23;43.33;;;23.52;;
30892;SDS011;17595;50.884;4.346;2022-12-08T03:22:51;38.58;;;23.38;;
30892;SDS011;17595;50.884;4.346;2022-12-08T03:25:20;35.72;;;22.70;;
30892;SDS011;17595;50.884;4.346;2022-12-08T03:27:49;39.40;;;24.15;;
30892;SDS011;17595;50.884;4.346;2022-12-08T03:30:15;42.42;;;23.88;;
30892;SDS011;17595;50.884;4.346;2022-12-08T03:32:55;41.92;;;23.30;;
30892;SDS011;17595;50.884;4.346;2022-12-08T03:35:29;40.60;;;23.33;;
30892;SDS011;17595;50.884;4.346;2022-12-08T03:40:32;50.40;;;24.88;;
30892;SDS011;17595;50.884;4.346;2022-12-08T03:42:58;37.95;;;23.55;;
30892;SDS011;17595;50.884;4.346;2022-12-08T03:45:24;41.97;;;24.35;;
30892;SDS011;17595;50.884;4.346;2022-12-08T03:47:50;48.25;;;27.13;;
30892;SDS011;17595;50.884;4.346;2022-12-08T03:50:15;41.30;;;24.33;;
30892;SDS011;17595;50.884;4.346;2022-12-08T03:52:41;39.10;;;23.30;;
30892;SDS011;17595;50.884;4.346;2022-12-08T03:55:06;37.47;;;22.83;;
30892;SDS011;17595;50.884;4.346;2022-12-08T03:57:32;39.15;;;23.83;;
30892;SDS011;17595;50.884;4.346;2022-12-08T03:59:58;33.25;;;22.27;;
30892;SDS011;17595;50.884;4.346;2022-12-08T04:02:23;36.55;;;22.65;;
30892;SDS011;17595;50.884;4.346;2022-12-08T04:04:49;36.80;;;23.30;;
30892;SDS011;17595;50.884;4.346;2022-12-08T04:07:15;36.45;;;22.40;;
30892;SDS011;17595;50.884;4.346;2022-12-08T04:09:40;37.15;;;22.75;;
30892;SDS011;17595;50.884;4.346;2022-12-08T04:12:06;40.30;;;22.42;;
30892;SDS011;17595;50.884;4.346;2022-12-08T04:14:33;36.22;;;22.55;;
30892;SDS011;17595;50.884;4.346;2022-12-08T04:16:58;32.60;;;21.30;;
30892;SDS011;17595;50.884;4.346;2022-12-08T04:19:24;36.72;;;21.27;;
30892;SDS011;17595;50.884;4.346;2022-12-08T04:21:49;34.58;;;22.20;;
30892;SDS011;17595;50.884;4.346;2022-12-08T04:24:15;38.50;;;22.48;;
30892;SDS011;17595;50.884;4.346;2022-12-08T04:26:41;38.28;;;20.85;;
30892;SDS011;17595;50.884;4.346;2022-12-08T04:29:07;32.25;;;20.70;;
30892;SDS011;17595;50.884;4.346;2022-12-08T04:31:32;31.15;;;19.52;;
30892;SDS011;17595;50.884;4.346;2022-12-08T04:33:58;32.00;;;19.50;;
30892;SDS011;17595;50.884;4.346;2022-12-08T04:36:23;28.33;;;18.75;;
30892;SDS011;17595;50.884;4.346;2022-12-08T04:38:49;32.08;;;19.15;;
30892;SDS011;17595;50.884;4.346;2022-12-08T04:41:15;31.33;;;19.70;;
30892;SDS011;17595;50.884;4.346;2022-12-08T04:43:40;28.08;;;17.98;;
30892;SDS011;17595;50.884;4.346;2022-12-08T04:46:08;30.13;;;18.13;;
30892;SDS011;17595;50.884;4.346;2022-12-08T04:48:35;30.75;;;18.40;;
30892;SDS011;17595;50.884;4.346;2022-12-08T04:51:02;31.10;;;18.13;;
30892;SDS011;17595;50.884;4.346;2022-12-08T04:53:28;26.50;;;17.88;;
30892;SDS011;17595;50.884;4.346;2022-12-08T04:55:53;30.20;;;18.67;;
30892;SDS011;17595;50.884;4.346;2022-12-08T04:58:19;29.20;;;18.25;;
30892;SDS011;17595;50.884;4.346;2022-12-08T05:00:45;27.13;;;17.60;;
30892;SDS011;17595;50.884;4.346;2022-12-08T05:03:12;25.15;;;17.65;;
30892;SDS011;17595;50.884;4.346;2022-12-08T05:05:38;28.08;;;18.20;;
30892;SDS011;17595;50.884;4.346;2022-12-08T05:08:04;28.73;;;18.45;;
30892;SDS011;17595;50.884;4.346;2022-12-08T05:10:30;28.73;;;17.60;;
30892;SDS011;17595;50.884;4.346;2022-12-08T05:12:57;31.88;;;18.08;;
30892;SDS011;17595;50.884;4.346;2022-12-08T05:15:23;25.52;;;16.40;;
30892;SDS011;17595;50.884;4.346;2022-12-08T05:17:49;27.67;;;17.10;;
30892;SDS011;17595;50.884;4.346;2022-12-08T05:20:14;24.45;;;16.80;;
30892;SDS011;17595;50.884;4.346;2022-12-08T05:22:40;29.67;;;16.55;;
30892;SDS011;17595;50.884;4.346;2022-12-08T05:25:06;28.63;;;15.85;;
30892;SDS011;17595;50.884;4.346;2022-12-08T05:27:32;25.30;;;15.48;;
30892;SDS011;17595;50.884;4.346;2022-12-08T05:29:58;28.58;;;16.00;;
30892;SDS011;17595;50.884;4.346;2022-12-08T05:32:23;21.85;;;15.15;;
30892;SDS011;17595;50.884;4.346;2022-12-08T05:34:49;26.02;;;15.45;;
30892;SDS011;17595;50.884;4.346;2022-12-08T05:37:15;25.45;;;14.85;;
30892;SDS011;17595;50.884;4.346;2022-12-08T05:39:41;25.80;;;15.23;;
30892;SDS011;17595;50.884;4.346;2022-12-08T05:42:06;21.55;;;14.75;;
30892;SDS011;17595;50.884;4.346;2022-12-08T05:44:32;26.17;;;15.63;;
30892;SDS011;17595;50.884;4.346;2022-12-08T05:46:57;21.75;;;14.60;;
30892;SDS011;17595;50.884;4.346;2022-12-08T05:49:23;23.33;;;15.13;;
30892;SDS011;17595;50.884;4.346;2022-12-08T05:51:49;26.08;;;15.40;;
30892;SDS011;17595;50.884;4.346;2022-12-08T05:54:14;24.70;;;15.30;;
30892;SDS011;17595;50.884;4.346;2022-12-08T05:56:40;26.48;;;16.17;;
30892;SDS011;17595;50.884;4.346;2022-12-08T05:59:06;23.90;;;15.02;;
30892;SDS011;17595;50.884;4.346;2022-12-08T06:01:31;26.20;;;15.40;;
30892;SDS011;17595;50.884;4.346;2022-12-08T06:03:58;26.02;;;15.68;;
30892;SDS011;17595;50.884;4.346;2022-12-08T06:06:25;25.67;;;14.98;;
30892;SDS011;17595;50.884;4.346;2022-12-08T06:08:51;21.70;;;14.82;;
30892;SDS011;17595;50.884;4.346;2022-12-08T06:11:21;22.77;;;14.70;;
30892;SDS011;17595;50.884;4.346;2022-12-08T06:13:49;21.95;;;14.13;;
30892;SDS011;17595;50.884;4.346;2022-12-08T06:16:16;22.77;;;14.43;;
30892;SDS011;17595;50.884;4.346;2022-12-08T06:18:42;24.30;;;13.70;;
30892;SDS011;17595;50.884;4.346;2022-12-08T06:21:10;22.73;;;14.43;;
30892;SDS011;17595;50.884;4.346;2022-12-08T06:23:37;23.38;;;14.52;;
30892;SDS011;17595;50.884;4.346;2022-12-08T06:26:07;24.83;;;14.85;;
30892;SDS011;17595;50.884;4.346;2022-12-08T06:28:34;27.08;;;15.07;;
30892;SDS011;17595;50.884;4.346;2022-12-08T06:31:05;24.38;;;14.48;;
30892;SDS011;17595;50.884;4.346;2022-12-08T06:33:39;22.57;;;14.40;;
30892;SDS011;17595;50.884;4.346;2022-12-08T06:36:05;22.75;;;14.70;;
30892;SDS011;17595;50.884;4.346;2022-12-08T06:38:31;21.33;;;14.82;;
30892;SDS011;17595;50.884;4.346;2022-12-08T06:40:57;26.67;;;15.55;;
30892;SDS011;17595;50.884;4.346;2022-12-08T06:43:24;24.58;;;15.52;;
30892;SDS011;17595;50.884;4.346;2022-12-08T06:45:50;28.67;;;14.95;;
30892;SDS011;17595;50.884;4.346;2022-12-08T06:48:16;25.20;;;15.43;;
30892;SDS011;17595;50.884;4.346;2022-12-08T06:50:42;23.05;;;14.20;;
30892;SDS011;17595;50.884;4.346;2022-12-08T06:53:10;24.58;;;14.43;;
30892;SDS011;17595;50.884;4.346;2022-12-08T06:55:37;24.83;;;14.68;;
30892;SDS011;17595;50.884;4.346;2022-12-08T06:58:07;24.52;;;13.57;;
30892;SDS011;17595;50.884;4.346;2022-12-08T07:00:32;29.33;;;14.32;;
30892;SDS011;17595;50.884;4.346;2022-12-08T07:02:58;26.70;;;15.02;;
30892;SDS011;17595;50.884;4.346;2022-12-08T07:05:23;24.67;;;14.07;;
30892;SDS011;17595;50.884;4.346;2022-12-08T07:07:49;21.80;;;13.60;;
30892;SDS011;17595;50.884;4.346;2022-12-08T07:10:14;22.73;;;13.85;;
30892;SDS011;17595;50.884;4.346;2022-12-08T07:12:40;19.52;;;13.23;;
30892;SDS011;17595;50.884;4.346;2022-12-08T07:15:06;23.75;;;14.15;;
30892;SDS011;17595;50.884;4.346;2022-12-08T07:17:32;24.45;;;13.05;;
30892;SDS011;17595;50.884;4.346;2022-12-08T07:19:57;22.83;;;13.63;;
30892;SDS011;17595;50.884;4.346;2022-12-08T07:22:23;25.15;;;13.68;;
30892;SDS011;17595;50.884;4.346;2022-12-08T07:24:49;20.63;;;12.25;;
30892;SDS011;17595;50.884;4.346;2022-12-08T07:27:14;23.85;;;13.27;;
30892;SDS011;17595;50.884;4.346;2022-12-08T07:29:40;20.55;;;12.25;;
30892;SDS011;17595;50.884;4.346;2022-12-08T07:32:06;20.15;;;12.73;;
30892;SDS011;17595;50.884;4.346;2022-12-08T07:34:32;17.58;;;11.95;;
30892;SDS011;17595;50.884;4.346;2022-12-08T07:36:57;20.10;;;11.63;;
30892;SDS011;17595;50.884;4.346;2022-12-08T07:39:23;23.30;;;12.40;;
30892;SDS011;17595;50.884;4.346;2022-12-08T07:41:48;18.73;;;11.40;;
30892;SDS011;17595;50.884;4.346;2022-12-08T07:44:14;20.48;;;12.32;;
30892;SDS011;17595;50.884;4.346;2022-12-08T07:46:40;21.00;;;11.90;;
30892;SDS011;17595;50.884;4.346;2022-12-08T07:49:05;19.05;;;11.57;;
30892;SDS011;17595;50.884;4.346;2022-12-08T07:51:31;20.83;;;11.90;;
30892;SDS011;17595;50.884;4.346;2022-12-08T07:53:57;24.23;;;11.52;;
30892;SDS011;17595;50.884;4.346;2022-12-08T07:56:22;18.90;;;12.35;;
30892;SDS011;17595;50.884;4.346;2022-12-08T07:58:48;24.95;;;12.45;;
30892;SDS011;17595;50.884;4.346;2022-12-08T08:01:21;19.67;;;12.60;;
30892;SDS011;17595;50.884;4.346;2022-12-08T08:03:51;20.95;;;12.57;;
30892;SDS011;17595;50.884;4.346;2022-12-08T08:06:18;21.15;;;13.38;;
30892;SDS011;17595;50.884;4.346;2022-12-08T08:08:44;19.33;;;12.07;;
30892;SDS011;17595;50.884;4.346;2022-12-08T08:11:10;21.63;;;13.57;;
30892;SDS011;17595;50.884;4.346;2022-12-08T08:13:35;22.08;;;13.30;;
30892;SDS011;17595;50.884;4.346;2022-12-08T08:16:05;26.13;;;14.10;;
30892;SDS011;17595;50.884;4.346;2022-12-08T08:18:32;24.05;;;13.88;;
30892;SDS011;17595;50.884;4.346;2022-12-08T08:20:58;25.40;;;14.50;;
30892;SDS011;17595;50.884;4.346;2022-12-08T08:23:24;24.73;;;14.23;;
30892;SDS011;17595;50.884;4.346;2022-12-08T08:25:49;26.33;;;14.05;;
30892;SDS011;17595;50.884;4.346;2022-12-08T08:28:15;25.38;;;14.38;;
30892;SDS011;17595;50.884;4.346;2022-12-08T08:30:41;24.88;;;13.48;;
30892;SDS011;17595;50.884;4.346;2022-12-08T08:33:06;26.90;;;14.30;;
30892;SDS011;17595;50.884;4.346;2022-12-08T08:35:32;26.98;;;14.40;;
30892;SDS011;17595;50.884;4.346;2022-12-08T08:37:59;26.50;;;14.45;;
30892;SDS011;17595;50.884;4.346;2022-12-08T08:40:25;24.60;;;14.32;;
30892;SDS011;17595;50.884;4.346;2022-12-08T08:42:51;24.77;;;13.50;;
30892;SDS011;17595;50.884;4.346;2022-12-08T08:45:16;26.83;;;14.70;;
30892;SDS011;17595;50.884;4.346;2022-12-08T08:47:42;25.23;;;14.18;;
30892;SDS011;17595;50.884;4.346;2022-12-08T08:50:07;28.75;;;15.00;;
30892;SDS011;17595;50.884;4.346;2022-12-08T08:52:33;26.77;;;14.55;;
30892;SDS011;17595;50.884;4.346;2022-12-08T08:54:59;25.85;;;15.07;;
30892;SDS011;17595;50.884;4.346;2022-12-08T08:57:25;28.48;;;14.85;;
30892;SDS011;17595;50.884;4.346;2022-12-08T08:59:50;23.42;;;14.68;;
30892;SDS011;17595;50.884;4.346;2022-12-08T09:02:17;29.05;;;16.25;;
30892;SDS011;17595;50.884;4.346;2022-12-08T09:04:43;34.85;;;17.67;;
30892;SDS011;17595;50.884;4.346;2022-12-08T09:07:09;32.63;;;17.60;;
30892;SDS011;17595;50.884;4.346;2022-12-08T09:09:36;28.52;;;17.52;;
30892;SDS011;17595;50.884;4.346;2022-12-08T09:12:02;35.25;;;16.15;;
30892;SDS011;17595;50.884;4.346;2022-12-08T09:14:28;31.77;;;17.17;;
30892;SDS011;17595;50.884;4.346;2022-12-08T09:16:53;28.58;;;16.77;;
30892;SDS011;17595;50.884;4.346;2022-12-08T09:19:19;32.35;;;16.67;;
30892;SDS011;17595;50.884;4.346;2022-12-08T09:21:45;34.88;;;17.42;;
30892;SDS011;17595;50.884;4.346;2022-12-08T09:24:10;33.60;;;16.92;;
30892;SDS011;17595;50.884;4.346;2022-12-08T09:26:39;27.63;;;16.25;;
30892;SDS011;17595;50.884;4.346;2022-12-08T09:29:06;28.98;;;15.98;;
30892;SDS011;17595;50.884;4.346;2022-12-08T09:31:32;28.73;;;15.27;;
30892;SDS011;17595;50.884;4.346;2022-12-08T09:33:57;27.23;;;16.67;;
30892;SDS011;17595;50.884;4.346;2022-12-08T09:36:23;31.42;;;15.77;;
30892;SDS011;17595;50.884;4.346;2022-12-08T09:38:49;28.60;;;15.48;;
30892;SDS011;17595;50.884;4.346;2022-12-08T09:44:01;29.58;;;15.93;;
30892;SDS011;17595;50.884;4.346;2022-12-08T09:46:40;27.95;;;15.30;;
30892;SDS011;17595;50.884;4.346;2022-12-08T09:49:11;26.88;;;14.68;;
30892;SDS011;17595;50.884;4.346;2022-12-08T09:51:40;31.55;;;16.08;;
30892;SDS011;17595;50.884;4.346;2022-12-08T09:56:40;26.33;;;13.75;;
30892;SDS011;17595;50.884;4.346;2022-12-08T10:01:53;28.77;;;14.13;;
30892;SDS011;17595;50.884;4.346;2022-12-08T10:09:41;32.65;;;14.32;;
30892;SDS011;17595;50.884;4.346;2022-12-08T10:15:09;25.77;;;13.27;;
30892;SDS011;17595;50.884;4.346;2022-12-08T10:17:59;24.13;;;14.38;;
30892;SDS011;17595;50.884;4.346;2022-12-08T10:20:33;33.67;;;13.93;;
30892;SDS011;17595;50.884;4.346;2022-12-08T10:26:04;21.87;;;13.37;;
30892;SDS011;17595;50.884;4.346;2022-12-08T10:28:26;34.10;;;14.48;;
30892;SDS011;17595;50.884;4.346;2022-12-08T10:30:51;25.02;;;13.23;;
30892;SDS011;17595;50.884;4.346;2022-12-08T10:33:19;23.80;;;13.27;;
30892;SDS011;17595;50.884;4.346;2022-12-08T10:35:47;26.50;;;13.43;;
30892;SDS011;17595;50.884;4.346;2022-12-08T10:38:22;25.88;;;13.88;;
30892;SDS011;17595;50.884;4.346;2022-12-08T10:41:18;32.65;;;13.38;;
30892;SDS011;17595;50.884;4.346;2022-12-08T10:46:13;22.42;;;11.40;;
30892;SDS011;17595;50.884;4.346;2022-12-08T10:51:47;23.23;;;11.00;;
30892;SDS011;17595;50.884;4.346;2022-12-08T10:54:23;22.92;;;11.48;;
30892;SDS011;17595;50.884;4.346;2022-12-08T10:56:54;27.23;;;12.55;;
30892;SDS011;17595;50.884;4.346;2022-12-08T10:59:20;20.10;;;12.27;;
30892;SDS011;17595;50.884;4.346;2022-12-08T11:01:47;25.90;;;11.75;;
30892;SDS011;17595;50.884;4.346;2022-12-08T11:04:17;25.67;;;12.48;;
30892;SDS011;17595;50.884;4.346;2022-12-08T11:06:45;22.23;;;11.23;;
30892;SDS011;17595;50.884;4.346;2022-12-08T11:12:29;25.15;;;11.30;;
30892;SDS011;17595;50.884;4.346;2022-12-08T11:14:32;21.90;;;11.90;;
30892;SDS011;17595;50.884;4.346;2022-12-08T11:19:57;25.08;;;11.52;;
30892;SDS011;17595;50.884;4.346;2022-12-08T11:25:16;30.48;;;12.32;;
30892;SDS011;17595;50.884;4.346;2022-12-08T11:27:45;20.83;;;11.68;;
30892;SDS011;17595;50.884;4.346;2022-12-08T11:32:47;21.95;;;10.95;;
30892;SDS011;17595;50.884;4.346;2022-12-08T11:35:28;16.98;;;9.52;;
30892;SDS011;17595;50.884;4.346;2022-12-08T11:37:59;19.67;;;10.93;;
30892;SDS011;17595;50.884;4.346;2022-12-08T11:40:33;18.83;;;9.98;;
30892;SDS011;17595;50.884;4.346;2022-12-08T11:45:51;22.45;;;11.50;;
30892;SDS011;17595;50.884;4.346;2022-12-08T11:48:36;20.35;;;10.75;;
30892;SDS011;17595;50.884;4.346;2022-12-08T11:56:49;20.30;;;10.75;;
30892;SDS011;17595;50.884;4.346;2022-12-08T11:59:21;18.00;;;9.95;;
30892;SDS011;17595;50.884;4.346;2022-12-08T12:01:55;20.52;;;10.55;;
30892;SDS011;17595;50.884;4.346;2022-12-08T12:04:25;19.58;;;10.65;;
30892;SDS011;17595;50.884;4.346;2022-12-08T12:09:43;24.05;;;11.07;;
30892;SDS011;17595;50.884;4.346;2022-12-08T12:12:40;18.08;;;9.00;;
30892;SDS011;17595;50.884;4.346;2022-12-08T12:21:10;17.55;;;9.23;;
30892;SDS011;17595;50.884;4.346;2022-12-08T12:23:59;19.05;;;9.23;;
30892;SDS011;17595;50.884;4.346;2022-12-08T12:26:37;17.42;;;9.23;;
30892;SDS011;17595;50.884;4.346;2022-12-08T12:29:27;16.25;;;9.77;;
30892;SDS011;17595;50.884;4.346;2022-12-08T12:31:57;22.50;;;9.38;;
30892;SDS011;17595;50.884;4.346;2022-12-08T12:34:29;15.63;;;8.75;;
30892;SDS011;17595;50.884;4.346;2022-12-08T12:50:13;18.40;;;8.80;;
30892;SDS011;17595;50.884;4.346;2022-12-08T13:03:41;14.02;;;8.05;;
30892;SDS011;17595;50.884;4.346;2022-12-08T13:06:07;14.82;;;7.45;;
30892;SDS011;17595;50.884;4.346;2022-12-08T13:08:36;13.00;;;7.30;;
30892;SDS011;17595;50.884;4.346;2022-12-08T13:11:06;12.10;;;6.43;;
30892;SDS011;17595;50.884;4.346;2022-12-08T13:13:36;12.93;;;6.68;;
30892;SDS011;17595;50.884;4.346;2022-12-08T13:18:40;12.20;;;6.63;;
30892;SDS011;17595;50.884;4.346;2022-12-08T13:21:15;10.80;;;6.03;;
30892;SDS011;17595;50.884;4.346;2022-12-08T13:29:28;13.73;;;6.50;;
30892;SDS011;17595;50.884;4.346;2022-12-08T13:34:40;13.68;;;6.85;;
30892;SDS011;17595;50.884;4.346;2022-12-08T13:44:46;12.25;;;6.18;;
30892;SDS011;17595;50.884;4.346;2022-12-08T13:47:24;11.55;;;6.10;;
30892;SDS011;17595;50.884;4.346;2022-12-08T13:50:00;15.32;;;8.13;;
30892;SDS011;17595;50.884;4.346;2022-12-08T13:54:57;12.68;;;6.57;;
30892;SDS011;17595;50.884;4.346;2022-12-08T13:57:27;14.00;;;6.80;;
30892;SDS011;17595;50.884;4.346;2022-12-08T14:00:00;10.52;;;6.40;;
30892;SDS011;17595;50.884;4.346;2022-12-08T14:02:36;12.43;;;7.03;;
30892;SDS011;17595;50.884;4.346;2022-12-08T14:05:05;11.25;;;6.22;;
30892;SDS011;17595;50.884;4.346;2022-12-08T14:07:31;8.10;;;3.17;;
30892;SDS011;17595;50.884;4.346;2022-12-08T14:09:57;3.60;;;2.05;;
30892;SDS011;17595;50.884;4.346;2022-12-08T14:12:26;2.30;;;1.87;;
30892;SDS011;17595;50.884;4.346;2022-12-08T14:14:53;3.95;;;1.85;;
30892;SDS011;17595;50.884;4.346;2022-12-08T14:17:23;4.93;;;2.10;;
30892;SDS011;17595;50.884;4.346;2022-12-08T14:19:56;3.55;;;2.20;;
30892;SDS011;17595;50.884;4.346;2022-12-08T14:22:23;2.50;;;2.30;;
30892;SDS011;17595;50.884;4.346;2022-12-08T14:24:56;4.25;;;2.47;;
30892;SDS011;17595;50.884;4.346;2022-12-08T14:27:23;4.88;;;2.63;;
30892;SDS011;17595;50.884;4.346;2022-12-08T14:29:57;4.80;;;2.60;;
30892;SDS011;17595;50.884;4.346;2022-12-08T14:37:33;4.97;;;3.35;;
30892;SDS011;17595;50.884;4.346;2022-12-08T14:40:06;4.05;;;3.60;;
30892;SDS011;17595;50.884;4.346;2022-12-08T14:42:53;5.95;;;3.63;;
30892;SDS011;17595;50.884;4.346;2022-12-08T14:53:38;6.70;;;4.13;;
30892;SDS011;17595;50.884;4.346;2022-12-08T15:01:37;6.30;;;4.80;;
30892;SDS011;17595;50.884;4.346;2022-12-08T15:04:07;7.93;;;4.60;;
30892;SDS011;17595;50.884;4.346;2022-12-08T15:06:33;7.03;;;4.57;;
30892;SDS011;17595;50.884;4.346;2022-12-08T15:09:12;11.68;;;4.35;;
30892;SDS011;17595;50.884;4.346;2022-12-08T15:11:42;5.82;;;4.43;;
30892;SDS011;17595;50.884;4.346;2022-12-08T15:14:25;7.85;;;5.05;;
30892;SDS011;17595;50.884;4.346;2022-12-08T15:16:56;7.07;;;4.18;;
30892;SDS011;17595;50.884;4.346;2022-12-08T15:21:52;6.03;;;4.55;;
30892;SDS011;17595;50.884;4.346;2022-12-08T15:24:54;8.95;;;4.60;;
30892;SDS011;17595;50.884;4.346;2022-12-08T15:27:20;7.72;;;4.32;;
30892;SDS011;17595;50.884;4.346;2022-12-08T15:29:49;6.95;;;4.32;;
30892;SDS011;17595;50.884;4.346;2022-12-08T15:32:16;7.20;;;4.40;;
30892;SDS011;17595;50.884;4.346;2022-12-08T15:34:46;7.38;;;4.82;;
30892;SDS011;17595;50.884;4.346;2022-12-08T15:37:19;8.55;;;5.07;;
30892;SDS011;17595;50.884;4.346;2022-12-08T15:39:47;10.05;;;5.32;;
30892;SDS011;17595;50.884;4.346;2022-12-08T15:42:13;9.63;;;5.15;;
30892;SDS011;17595;50.884;4.346;2022-12-08T15:44:39;8.75;;;6.20;;
30892;SDS011;17595;50.884;4.346;2022-12-08T15:47:09;8.35;;;6.00;;
30892;SDS011;17595;50.884;4.346;2022-12-08T15:49:45;7.00;;;5.57;;
30892;SDS011;17595;50.884;4.346;2022-12-08T15:52:12;9.98;;;5.47;;
30892;SDS011;17595;50.884;4.346;2022-12-08T15:54:40;10.00;;;4.93;;
30892;SDS011;17595;50.884;4.346;2022-12-08T15:57:05;8.13;;;4.97;;
30892;SDS011;17595;50.884;4.346;2022-12-08T15:59:40;7.47;;;5.85;;
30892;SDS011;17595;50.884;4.346;2022-12-08T16:02:07;9.85;;;5.43;;
30892;SDS011;17595;50.884;4.346;2022-12-08T16:04:36;7.68;;;5.70;;
30892;SDS011;17595;50.884;4.346;2022-12-08T16:07:01;9.85;;;5.97;;
30892;SDS011;17595;50.884;4.346;2022-12-08T16:09:30;12.75;;;7.10;;
30892;SDS011;17595;50.884;4.346;2022-12-08T16:12:12;8.73;;;6.07;;
30892;SDS011;17595;50.884;4.346;2022-12-08T16:15:09;8.55;;;7.10;;
30892;SDS011;17595;50.884;4.346;2022-12-08T16:17:36;9.05;;;6.20;;
30892;SDS011;17595;50.884;4.346;2022-12-08T16:20:04;9.95;;;6.38;;
30892;SDS011;17595;50.884;4.346;2022-12-08T16:22:32;11.80;;;6.63;;
30892;SDS011;17595;50.884;4.346;2022-12-08T16:24:57;14.07;;;6.68;;
30892;SDS011;17595;50.884;4.346;2022-12-08T16:27:24;8.05;;;6.35;;
30892;SDS011;17595;50.884;4.346;2022-12-08T16:29:52;6.20;;;5.40;;
30892;SDS011;17595;50.884;4.346;2022-12-08T16:32:18;8.40;;;6.13;;
30892;SDS011;17595;50.884;4.346;2022-12-08T16:34:43;9.90;;;6.10;;
30892;SDS011;17595;50.884;4.346;2022-12-08T16:37:16;9.45;;;6.50;;
30892;SDS011;17595;50.884;4.346;2022-12-08T16:39:50;10.63;;;7.18;;
30892;SDS011;17595;50.884;4.346;2022-12-08T16:42:21;7.30;;;6.13;;
30892;SDS011;17595;50.884;4.346;2022-12-08T16:47:40;9.48;;;6.70;;
30892;SDS011;17595;50.884;4.346;2022-12-08T16:50:15;10.10;;;7.28;;
30892;SDS011;17595;50.884;4.346;2022-12-08T16:52:44;9.43;;;8.00;;
30892;SDS011;17595;50.884;4.346;2022-12-08T16:55:12;11.10;;;8.95;;
30892;SDS011;17595;50.884;4.346;2022-12-08T16:57:39;10.00;;;8.23;;
30892;SDS011;17595;50.884;4.346;2022-12-08T17:00:06;9.52;;;8.23;;
30892;SDS011;17595;50.884;4.346;2022-12-08T17:02:34;11.00;;;8.33;;
30892;SDS011;17595;50.884;4.346;2022-12-08T17:04:59;12.57;;;8.30;;
30892;SDS011;17595;50.884;4.346;2022-12-08T17:07:25;10.73;;;8.27;;
30892;SDS011;17595;50.884;4.346;2022-12-08T17:09:51;11.68;;;9.13;;
30892;SDS011;17595;50.884;4.346;2022-12-08T17:12:17;10.27;;;9.15;;